createdAt,value
2022-12-20T00:01:40.266Z,102304.94
2022-12-20T00:04:13.451Z,102297.87
2022-12-20T00:06:46.150Z,102308.84
2022-12-20T00:09:18.894Z,102296.92
2022-12-20T00:11:51.801Z,102301.58
2022-12-20T00:14:25.097Z,102298.89
2022-12-20T00:16:57.823Z,102298.64
2022-12-20T00:19:30.429Z,102300.15
2022-12-20T00:22:03.364Z,102293.38
2022-12-20T00:24:36.351Z,102280.22
2022-12-20T00:27:09.339Z,102286.69
2022-12-20T00:29:41.916Z,102287.05
2022-12-20T00:32:14.573Z,102285.55
2022-12-20T00:34:47.192Z,102281.27
2022-12-20T00:37:19.912Z,102286.84
2022-12-20T00:39:52.585Z,102290.83
2022-12-20T00:42:26.271Z,102282.62
2022-12-20T00:44:59.217Z,102281.35
2022-12-20T00:47:32.458Z,102276.63
2022-12-20T00:50:05.432Z,102274.70
2022-12-20T00:52:38.187Z,102268.74
2022-12-20T00:55:11.218Z,102264.83
2022-12-20T00:57:43.943Z,102266.10
2022-12-20T01:00:17.993Z,102280.01
2022-12-20T01:02:51.848Z,102270.26
2022-12-20T01:05:24.773Z,102272.81
2022-12-20T01:07:57.913Z,102277.00
2022-12-20T01:10:30.591Z,102270.86
2022-12-20T01:13:04.239Z,102280.89
2022-12-20T01:15:37.893Z,102275.11
2022-12-20T01:18:10.681Z,102274.28
2022-12-20T01:20:43.942Z,102276.25
2022-12-20T01:23:16.830Z,102273.02
2022-12-20T01:25:52.604Z,102271.30
2022-12-20T01:28:25.403Z,102278.72
2022-12-20T01:30:58.466Z,102285.00
2022-12-20T01:33:31.278Z,102280.45
2022-12-20T01:36:07.620Z,102277.53
2022-12-20T01:38:40.876Z,102273.70
2022-12-20T01:41:19.784Z,102264.45
2022-12-20T01:44:01.601Z,102267.59
2022-12-20T01:46:37.433Z,102275.13
2022-12-20T01:49:23.325Z,102264.67
2022-12-20T01:52:00.216Z,102264.36
2022-12-20T01:54:47.345Z,102264.14
2022-12-20T01:57:45.502Z,102261.14
2022-12-20T02:00:19.239Z,102261.72
2022-12-20T02:02:52.951Z,102259.73
2022-12-20T02:05:26.071Z,102255.89
2022-12-20T02:07:59.680Z,102257.53
2022-12-20T02:10:49.036Z,102251.06
2022-12-20T02:13:36.384Z,102246.56
2022-12-20T02:16:09.218Z,102237.49
2022-12-20T02:18:53.581Z,102247.47
2022-12-20T02:21:36.455Z,102240.31
2022-12-20T02:24:51.138Z,102241.23
2022-12-20T02:27:46.976Z,102252.16
2022-12-20T02:30:22.789Z,102233.63
2022-12-20T02:33:05.552Z,102232.12
2022-12-20T02:35:40.620Z,102242.20
2022-12-20T02:38:33.522Z,102234.45
2022-12-20T02:41:20.451Z,102227.52
2022-12-20T02:44:15.974Z,102241.19
2022-12-20T02:46:49.598Z,102235.73
2022-12-20T02:49:25.519Z,102232.12
2022-12-20T02:51:59.349Z,102229.80
2022-12-20T02:54:32.583Z,102229.94
2022-12-20T02:57:15.918Z,102225.84
2022-12-20T03:00:11.804Z,102223.88
2022-12-20T03:03:05.031Z,102222.69
2022-12-20T03:05:42.765Z,102227.11
2022-12-20T03:08:15.938Z,102226.07
2022-12-20T03:10:49.126Z,102232.45
2022-12-20T03:13:23.334Z,102231.53
2022-12-20T03:16:07.094Z,102228.53
2022-12-20T03:18:40.951Z,102224.38
2022-12-20T03:21:14.227Z,102230.89
2022-12-20T03:23:47.345Z,102231.84
2022-12-20T03:26:20.014Z,102228.70
2022-12-20T03:28:54.341Z,102234.16
2022-12-20T03:31:28.582Z,102234.72
2022-12-20T03:34:01.322Z,102242.83
2022-12-20T03:36:34.911Z,102242.37
2022-12-20T03:39:08.860Z,102249.89
2022-12-20T03:41:43.718Z,102247.23
2022-12-20T03:44:17.851Z,102245.05
2022-12-20T03:46:50.703Z,102237.50
2022-12-20T03:49:23.395Z,102242.59
2022-12-20T03:51:56.691Z,102242.83
2022-12-20T03:54:29.518Z,102236.94
2022-12-20T03:57:07.351Z,102235.67
2022-12-20T03:59:40.108Z,102236.62
2022-12-20T04:02:13.515Z,102233.25
2022-12-20T04:04:46.759Z,102233.84
2022-12-20T04:07:19.854Z,102225.95
2022-12-20T04:09:52.616Z,102224.00
2022-12-20T04:12:25.429Z,102221.67
2022-12-20T04:14:58.183Z,102226.09
2022-12-20T04:17:33.293Z,102220.86
2022-12-20T04:20:09.666Z,102221.55
2022-12-20T04:22:42.737Z,102227.46
2022-12-20T04:25:17.143Z,102219.26
2022-12-20T04:27:49.981Z,102221.81
2022-12-20T04:30:22.941Z,102228.14
2022-12-20T04:32:56.652Z,102226.61
2022-12-20T04:35:30.694Z,102223.02
2022-12-20T04:38:03.923Z,102219.28
2022-12-20T04:40:37.203Z,102219.23
2022-12-20T04:43:11.733Z,102218.09
2022-12-20T04:45:45.211Z,102221.02
2022-12-20T04:48:54.665Z,102216.18
2022-12-20T04:50:54.025Z,102219.05
2022-12-20T04:53:37.317Z,102214.36
2022-12-20T04:56:10.865Z,102212.75
2022-12-20T04:58:43.997Z,102221.77
2022-12-20T05:01:17.207Z,102229.78
2022-12-20T05:03:51.929Z,102229.65
2022-12-20T05:06:25.336Z,102225.14
2022-12-20T05:08:58.095Z,102227.92
2022-12-20T05:11:31.623Z,102225.02
2022-12-20T05:14:04.603Z,102227.92
2022-12-20T05:16:38.058Z,102235.92
2022-12-20T05:19:11.235Z,102224.91
2022-12-20T05:22:02.838Z,102227.92
2022-12-20T05:24:54.439Z,102221.38
2022-12-20T05:27:34.865Z,102225.75
2022-12-20T05:30:10.025Z,102224.79
2022-12-20T05:32:43.050Z,102228.94
2022-12-20T05:35:16.159Z,102221.27
2022-12-20T05:37:50.032Z,102230.16
2022-12-20T05:40:24.104Z,102223.91
2022-12-20T05:42:57.123Z,102235.02
2022-12-20T05:45:31.605Z,102234.34
2022-12-20T05:48:07.171Z,102235.17
2022-12-20T05:50:41.347Z,102239.67
2022-12-20T05:53:27.840Z,102244.23
2022-12-20T05:56:03.384Z,102243.79
2022-12-20T05:58:39.092Z,102249.84
2022-12-20T06:01:12.552Z,102249.89
2022-12-20T06:03:46.124Z,102253.16
2022-12-20T06:06:20.796Z,102248.61
2022-12-20T06:08:56.369Z,102240.90
2022-12-20T06:11:30.844Z,102243.70
2022-12-20T06:14:07.948Z,102239.28
2022-12-20T06:16:42.521Z,102242.78
2022-12-20T06:19:21.159Z,102240.11
2022-12-20T06:21:50.756Z,102242.45
2022-12-20T06:24:27.020Z,102241.41
2022-12-20T06:26:59.875Z,102242.09
2022-12-20T06:29:34.501Z,102231.57
2022-12-20T06:32:09.050Z,102236.97
2022-12-20T06:34:43.257Z,102235.56
2022-12-20T06:37:16.765Z,102237.89
2022-12-20T06:39:50.009Z,102234.63
2022-12-20T06:42:22.986Z,102232.53
2022-12-20T06:44:56.019Z,102232.26
2022-12-20T06:47:28.789Z,102231.66
2022-12-20T06:50:02.167Z,102218.78
2022-12-20T06:52:35.015Z,102225.52
2022-12-20T06:55:08.007Z,102224.47
2022-12-20T06:57:43.395Z,102222.28
2022-12-20T07:00:17.558Z,102225.20
2022-12-20T07:02:50.477Z,102229.80
2022-12-20T07:05:23.527Z,102230.48
2022-12-20T07:07:57.056Z,102237.53
2022-12-20T07:10:30.120Z,102238.22
2022-12-20T07:13:03.450Z,102235.17
2022-12-20T07:15:36.056Z,102237.70
2022-12-20T07:18:09.750Z,102241.27
2022-12-20T07:20:42.554Z,102243.22
2022-12-20T07:23:15.790Z,102245.40
2022-12-20T07:25:56.920Z,102242.24
2022-12-20T07:28:30.969Z,102246.20
2022-12-20T07:31:05.139Z,102247.71
2022-12-20T07:33:39.691Z,102248.22
2022-12-20T07:36:14.580Z,102243.95
2022-12-20T07:38:47.671Z,102240.72
2022-12-20T07:41:21.015Z,102248.42
2022-12-20T07:43:53.919Z,102238.23
2022-12-20T07:46:27.236Z,102237.22
2022-12-20T07:49:01.179Z,102235.72
2022-12-20T07:51:50.060Z,102233.13
2022-12-20T07:54:32.437Z,102226.61
2022-12-20T07:57:10.255Z,102231.70
2022-12-20T07:59:46.638Z,102235.39
2022-12-20T08:02:24.012Z,102227.88
2022-12-20T08:04:57.853Z,102224.52
2022-12-20T08:07:31.511Z,102227.42
2022-12-20T08:10:05.624Z,102222.78
2022-12-20T08:12:39.043Z,102215.95
2022-12-20T08:15:12.583Z,102210.34
2022-12-20T08:17:45.389Z,102209.03
2022-12-20T08:20:19.968Z,102206.97
2022-12-20T08:22:52.061Z,102198.48
2022-12-20T08:25:25.972Z,102196.52
2022-12-20T08:28:00.324Z,102192.83
2022-12-20T08:30:33.405Z,102182.17
2022-12-20T08:33:06.663Z,102174.12
2022-12-20T08:35:39.752Z,102174.52
2022-12-20T08:38:12.449Z,102171.80
2022-12-20T08:40:45.146Z,102174.11
2022-12-20T08:43:17.877Z,102171.49
2022-12-20T08:45:59.979Z,102170.27
2022-12-20T08:48:32.914Z,102158.30
2022-12-20T08:51:09.612Z,102155.56
2022-12-20T08:53:42.653Z,102160.17
2022-12-20T08:56:18.446Z,102155.56
2022-12-20T08:58:51.650Z,102157.78
2022-12-20T09:01:27.092Z,102150.46
2022-12-20T09:04:00.852Z,102148.30
2022-12-20T09:06:36.205Z,102146.38
2022-12-20T09:09:09.191Z,102148.41
2022-12-20T09:11:42.488Z,102131.81
2022-12-20T09:14:15.475Z,102126.46
2022-12-20T09:16:48.384Z,102124.07
2022-12-20T09:19:21.331Z,102114.82
2022-12-20T09:21:55.725Z,102111.63
2022-12-20T09:24:29.043Z,102108.09
2022-12-20T09:27:02.389Z,102100.24
2022-12-20T09:29:36.256Z,102102.58
2022-12-20T09:32:09.146Z,102103.30
2022-12-20T09:34:41.966Z,102088.33
2022-12-20T09:37:14.637Z,102087.16
2022-12-20T09:39:49.171Z,102081.89
2022-12-20T09:42:25.920Z,102078.03
2022-12-20T09:45:09.187Z,102074.61
2022-12-20T09:47:42.485Z,102067.97
2022-12-20T09:50:17.628Z,102062.64
2022-12-20T09:52:55.154Z,102060.97
2022-12-20T09:55:44.730Z,102057.04
2022-12-20T09:58:40.066Z,102053.69
2022-12-20T10:01:23.009Z,102041.79
2022-12-20T10:03:53.514Z,102048.28
2022-12-20T10:06:45.543Z,102050.44
2022-12-20T10:09:45.191Z,102037.65
2022-12-20T10:12:34.630Z,102024.16
2022-12-20T10:15:41.750Z,102021.45
2022-12-20T10:18:46.572Z,102018.48
2022-12-20T10:21:38.563Z,102016.20
2022-12-20T10:24:33.071Z,102014.66
2022-12-20T10:27:19.111Z,102019.62
2022-12-20T10:29:52.031Z,102011.83
2022-12-20T10:32:29.308Z,102005.22
2022-12-20T10:35:33.890Z,102002.23
2022-12-20T10:38:16.930Z,101996.28
2022-12-20T10:41:22.559Z,101989.16
2022-12-20T10:44:01.294Z,101985.97
2022-12-20T10:46:55.925Z,101978.18
2022-12-20T10:49:38.281Z,101974.83
2022-12-20T10:52:15.745Z,101968.08
2022-12-20T10:54:49.170Z,101968.23
2022-12-20T10:57:33.730Z,101955.17
2022-12-20T11:00:09.412Z,101949.70
2022-12-20T11:02:43.986Z,101943.03
2022-12-20T11:05:24.340Z,101943.80
2022-12-20T11:08:39.278Z,101938.25
2022-12-20T11:10:55.267Z,101931.69
2022-12-20T11:13:29.701Z,101925.69
2022-12-20T11:16:02.732Z,101920.24
2022-12-20T11:18:54.575Z,101919.92
2022-12-20T11:21:54.953Z,101919.44
2022-12-20T11:24:56.205Z,101923.75
2022-12-20T11:27:45.268Z,101913.04
2022-12-20T11:30:21.732Z,101909.74
2022-12-20T11:33:20.413Z,101907.77
2022-12-20T11:36:01.185Z,101909.25
2022-12-20T11:38:53.415Z,101909.30
2022-12-20T11:41:40.114Z,101904.28
2022-12-20T11:44:50.114Z,101904.28
2022-12-20T11:48:02.633Z,101900.55
2022-12-20T11:50:52.270Z,101894.83
2022-12-20T11:53:35.642Z,101889.27
2022-12-20T11:56:16.160Z,101888.84
2022-12-20T11:58:52.778Z,101893.91
2022-12-20T12:01:39.199Z,101898.14
2022-12-20T12:04:22.073Z,101895.64
2022-12-20T12:06:59.951Z,101886.97
2022-12-20T12:09:55.600Z,101884.36
2022-12-20T12:12:41.348Z,101881.76
2022-12-20T12:15:40.070Z,101876.92
2022-12-20T12:18:20.378Z,101890.09
2022-12-20T12:21:26.308Z,101886.28
2022-12-20T12:24:18.465Z,101880.25
2022-12-20T12:26:51.205Z,101864.70
2022-12-20T12:29:24.668Z,101870.23
2022-12-20T12:32:22.052Z,101863.20
2022-12-20T12:35:22.170Z,101872.14
2022-12-20T12:38:08.543Z,101865.91
2022-12-20T12:41:03.343Z,101852.11
2022-12-20T12:43:44.089Z,101857.77
2022-12-20T12:46:29.544Z,101857.28
2022-12-20T12:49:21.920Z,101843.42
2022-12-20T12:52:01.717Z,101838.89
2022-12-20T12:54:40.765Z,101829.00
2022-12-20T12:57:17.532Z,101833.62
2022-12-20T12:59:52.724Z,101825.45
2022-12-20T13:02:29.269Z,101805.41
2022-12-20T13:05:19.424Z,101807.81
2022-12-20T13:07:51.244Z,101817.45
2022-12-20T13:10:29.845Z,101817.13
2022-12-20T13:13:04.382Z,101816.92
2022-12-20T13:15:45.627Z,101808.67
2022-12-20T13:18:24.711Z,101812.25
2022-12-20T13:21:21.973Z,101807.22
2022-12-20T13:24:18.640Z,101805.89
2022-12-20T13:26:55.853Z,101804.61
2022-12-20T13:29:35.182Z,101793.97
2022-12-20T13:32:30.281Z,101793.97
2022-12-20T13:35:03.114Z,101790.63
2022-12-20T13:37:59.433Z,101788.81
2022-12-20T13:40:45.909Z,101787.33
2022-12-20T13:43:26.430Z,101783.98
2022-12-20T13:46:18.372Z,101789.37
2022-12-20T13:49:02.423Z,101787.69
2022-12-20T13:51:35.302Z,101799.50
2022-12-20T13:54:12.841Z,101796.16
2022-12-20T13:56:49.798Z,101794.34
2022-12-20T13:59:27.351Z,101780.56
2022-12-20T14:02:07.161Z,101780.84
2022-12-20T14:04:46.227Z,101763.48
2022-12-20T14:07:20.394Z,101750.61
2022-12-20T14:10:01.071Z,101751.02
2022-12-20T14:12:37.043Z,101763.59
2022-12-20T14:15:22.470Z,101761.69
2022-12-20T14:17:56.019Z,101752.91
2022-12-20T14:20:30.848Z,101751.41
2022-12-20T14:23:12.530Z,101749.92
2022-12-20T14:25:52.645Z,101737.80
2022-12-20T14:28:32.639Z,101748.39
2022-12-20T14:31:08.749Z,101749.45
2022-12-20T14:33:43.223Z,101733.64
2022-12-20T14:36:22.305Z,101734.31
2022-12-20T14:38:55.175Z,101729.88
2022-12-20T14:41:40.845Z,101724.33
2022-12-20T14:44:19.186Z,101725.23
2022-12-20T14:46:59.033Z,101720.23
2022-12-20T14:49:34.655Z,101725.47
2022-12-20T14:52:22.876Z,101726.54
2022-12-20T14:55:08.242Z,101721.43
2022-12-20T14:57:42.134Z,101712.62
2022-12-20T15:00:25.086Z,101711.71
2022-12-20T15:03:13.883Z,101702.77
2022-12-20T15:05:58.652Z,101705.82
2022-12-20T15:08:33.363Z,101701.94
2022-12-20T15:11:13.807Z,101701.58
2022-12-20T15:13:50.403Z,101702.97
2022-12-20T15:16:30.117Z,101699.97
2022-12-20T15:19:05.142Z,101697.08
2022-12-20T15:21:43.145Z,101688.67
2022-12-20T15:24:23.688Z,101685.53
2022-12-20T15:26:57.280Z,101683.27
2022-12-20T15:29:30.915Z,101675.81
2022-12-20T15:32:17.389Z,101677.91
2022-12-20T15:34:50.096Z,101672.70
2022-12-20T15:37:22.944Z,101668.04
2022-12-20T15:39:55.662Z,101665.92
2022-12-20T15:42:28.385Z,101653.75
2022-12-20T15:45:01.081Z,101654.53
2022-12-20T15:47:34.184Z,101644.13
2022-12-20T15:50:08.753Z,101649.65
2022-12-20T15:52:41.719Z,101645.64
2022-12-20T15:55:14.485Z,101645.11
2022-12-20T15:57:47.553Z,101643.25
2022-12-20T19:02:56.804Z,101409.72
2022-12-20T19:18:37.610Z,101387.99
2022-12-20T19:21:27.008Z,101383.59
2022-12-20T19:24:05.316Z,101387.69
2022-12-20T19:26:39.951Z,101391.23
2022-12-20T19:29:12.667Z,101376.09
2022-12-20T19:31:45.622Z,101380.92
2022-12-20T19:34:18.978Z,101378.63
2022-12-20T19:36:53.060Z,101374.11
2022-12-20T19:39:25.859Z,101378.72
2022-12-20T19:44:34.413Z,101383.00
2022-12-20T19:47:07.572Z,101380.25
2022-12-20T19:49:40.559Z,101382.44
2022-12-20T19:52:13.294Z,101386.09
2022-12-20T19:54:46.231Z,101390.69
2022-12-20T19:57:18.962Z,101389.22
2022-12-20T19:59:56.045Z,101387.04
2022-12-20T20:02:27.664Z,101385.76
2022-12-20T20:05:00.818Z,101385.05
2022-12-20T20:07:34.004Z,101390.31
2022-12-20T20:10:08.535Z,101395.04
2022-12-20T20:12:42.171Z,101406.16
2022-12-20T20:15:15.027Z,101389.66
2022-12-20T20:17:47.676Z,101386.38
2022-12-20T20:20:21.003Z,101391.12
2022-12-20T20:22:53.868Z,101386.76
2022-12-20T20:25:26.645Z,101379.41
2022-12-20T20:27:59.437Z,101373.59
2022-12-20T20:30:32.404Z,101369.76
2022-12-20T20:33:05.401Z,101357.34
2022-12-20T20:35:39.110Z,101364.31
2022-12-20T20:38:13.461Z,101366.70
2022-12-20T20:40:46.517Z,101367.44
2022-12-20T20:43:20.133Z,101371.42
2022-12-20T20:45:53.163Z,101373.78
2022-12-20T20:48:26.493Z,101369.55
2022-12-20T20:51:00.149Z,101365.66
2022-12-20T20:53:34.437Z,101363.99
2022-12-20T20:56:08.882Z,101356.16
2022-12-20T20:58:42.283Z,101351.05
2022-12-20T21:01:15.497Z,101353.99
2022-12-20T21:03:48.957Z,101340.95
2022-12-20T21:08:58.099Z,101334.22
2022-12-20T21:11:31.042Z,101330.02
2022-12-20T21:14:04.322Z,101334.61
2022-12-20T21:16:37.456Z,101334.09
2022-12-20T21:19:12.000Z,101336.46
2022-12-20T21:21:44.816Z,101332.81
2022-12-20T21:24:17.819Z,101333.38
2022-12-20T21:26:53.324Z,101327.35
2022-12-20T21:29:26.187Z,101325.92
2022-12-20T21:31:59.193Z,101327.92
2022-12-20T21:34:32.240Z,101324.79
2022-12-20T21:37:07.078Z,101318.95
2022-12-20T21:39:39.988Z,101314.36
2022-12-20T21:42:12.805Z,101313.27
2022-12-20T21:44:45.740Z,101322.08
2022-12-20T21:47:18.833Z,101314.02
2022-12-20T21:49:51.802Z,101308.52
2022-12-20T21:52:24.686Z,101307.42
2022-12-20T21:54:58.355Z,101296.45
2022-12-20T21:57:31.639Z,101300.11
2022-12-20T22:00:06.056Z,101307.08
2022-12-20T22:02:40.200Z,101300.30
2022-12-20T22:05:12.993Z,101298.30
2022-12-20T22:07:47.988Z,101297.02
2022-12-20T22:10:20.879Z,101294.98
2022-12-20T22:12:55.127Z,101286.20
2022-12-20T22:15:28.132Z,101284.92
2022-12-20T22:18:00.977Z,101277.05
2022-12-20T22:20:35.300Z,101274.68
2022-12-20T22:23:08.044Z,101264.99
2022-12-20T22:25:41.650Z,101255.09
2022-12-20T22:28:14.590Z,101255.47
2022-12-20T22:30:47.632Z,101253.63
2022-12-20T22:33:20.581Z,101255.84
2022-12-20T22:35:53.719Z,101251.25
2022-12-20T22:38:26.589Z,101249.44
2022-12-20T22:41:17.319Z,101244.84
2022-12-20T22:43:51.016Z,101256.92
2022-12-20T22:46:24.330Z,101251.61
2022-12-20T22:48:57.685Z,101248.14
2022-12-20T22:51:32.873Z,101252.17
2022-12-20T22:54:05.794Z,101248.17
2022-12-20T22:56:38.557Z,101248.70
2022-12-20T22:59:11.269Z,101248.33
2022-12-20T23:01:44.409Z,101243.92
2022-12-20T23:04:17.668Z,101252.72
2022-12-20T23:06:50.681Z,101259.31
2022-12-20T23:09:28.624Z,101247.41
2022-12-20T23:12:19.512Z,101251.81
2022-12-20T23:15:10.812Z,101238.25
2022-12-20T23:17:43.632Z,101241.53
2022-12-20T23:20:34.300Z,101235.16
2022-12-20T23:23:07.836Z,101237.37
2022-12-20T23:25:42.237Z,101234.95
2022-12-20T23:28:14.943Z,101234.95
2022-12-20T23:30:47.880Z,101235.33
2022-12-20T23:33:20.577Z,101242.49
2022-12-20T23:36:01.012Z,101251.63
2022-12-20T23:38:39.017Z,101241.34
2022-12-20T23:41:15.539Z,101218.30
2022-12-20T23:43:48.556Z,101224.36
2022-12-20T23:46:25.000Z,101228.75
2022-12-20T23:49:00.105Z,101227.66
2022-12-20T23:51:34.525Z,101226.37
2022-12-20T23:54:07.536Z,101213.56
2022-12-20T23:56:40.410Z,101222.88
2022-12-20T23:59:13.077Z,101223.44
